sensor_id;sensor_type;location;lat;lon;timestamp;temperature;humidity
75091;DHT22;63674;48.048;8.306;2023-02-07T00:01:40;-2.40;99.90
75091;DHT22;63674;48.048;8.306;2023-02-07T00:04:10;-2.50;99.90
75091;DHT22;63674;48.048;8.306;2023-02-07T00:06:38;-2.40;99.90
75091;DHT22;63674;48.048;8.306;2023-02-07T00:09:09;-2.50;99.90
75091;DHT22;63674;48.048;8.306;2023-02-07T00:11:39;-2.50;99.90
75091;DHT22;63674;48.048;8.306;2023-02-07T00:14:09;-2.70;99.90
75091;DHT22;63674;48.048;8.306;2023-02-07T00:16:39;-2.80;99.90
75091;DHT22;63674;48.048;8.306;2023-02-07T00:19:13;-2.90;99.90
75091;DHT22;63674;48.048;8.306;2023-02-07T00:21:41;-2.90;99.90
75091;DHT22;63674;48.048;8.306;2023-02-07T00:24:10;-2.90;99.90
75091;DHT22;63674;48.048;8.306;2023-02-07T00:26:38;-2.90;99.90
75091;DHT22;63674;48.048;8.306;2023-02-07T00:29:07;-3.00;99.90
75091;DHT22;63674;48.048;8.306;2023-02-07T00:31:35;-3.10;99.90
75091;DHT22;63674;48.048;8.306;2023-02-07T00:34:06;-3.10;99.90
75091;DHT22;63674;48.048;8.306;2023-02-07T00:36:37;-3.10;99.90
75091;DHT22;63674;48.048;8.306;2023-02-07T00:39:09;-3.20;99.90
75091;DHT22;63674;48.048;8.306;2023-02-07T00:41:39;-3.20;99.90
75091;DHT22;63674;48.048;8.306;2023-02-07T00:44:08;-3.30;99.90
75091;DHT22;63674;48.048;8.306;2023-02-07T00:46:37;-3.30;99.90
75091;DHT22;63674;48.048;8.306;2023-02-07T00:49:06;-3.30;99.90
75091;DHT22;63674;48.048;8.306;2023-02-07T00:51:36;-3.30;99.90
75091;DHT22;63674;48.048;8.306;2023-02-07T00:54:05;-3.30;99.90
75091;DHT22;63674;48.048;8.306;2023-02-07T00:56:34;-3.30;99.90
75091;DHT22;63674;48.048;8.306;2023-02-07T00:59:02;-3.40;99.90
75091;DHT22;63674;48.048;8.306;2023-02-07T01:01:31;-3.30;99.90
75091;DHT22;63674;48.048;8.306;2023-02-07T01:03:59;-3.30;99.90
75091;DHT22;63674;48.048;8.306;2023-02-07T01:06:28;-3.30;99.90
75091;DHT22;63674;48.048;8.306;2023-02-07T01:09:03;-3.30;99.90
75091;DHT22;63674;48.048;8.306;2023-02-07T01:11:32;-3.20;99.90
75091;DHT22;63674;48.048;8.306;2023-02-07T01:14:02;-3.20;99.90
75091;DHT22;63674;48.048;8.306;2023-02-07T01:16:32;-3.20;99.90
75091;DHT22;63674;48.048;8.306;2023-02-07T01:19:04;-3.30;99.90
75091;DHT22;63674;48.048;8.306;2023-02-07T01:21:33;-3.30;99.90
75091;DHT22;63674;48.048;8.306;2023-02-07T01:24:04;-3.40;99.90
75091;DHT22;63674;48.048;8.306;2023-02-07T01:26:33;-3.40;99.90
75091;DHT22;63674;48.048;8.306;2023-02-07T01:29:03;-3.50;99.90
75091;DHT22;63674;48.048;8.306;2023-02-07T01:34:01;-3.50;99.90
75091;DHT22;63674;48.048;8.306;2023-02-07T01:36:31;-3.50;99.90
75091;DHT22;63674;48.048;8.306;2023-02-07T01:39:00;-3.60;99.90
75091;DHT22;63674;48.048;8.306;2023-02-07T01:41:31;-3.60;99.90
75091;DHT22;63674;48.048;8.306;2023-02-07T01:44:02;-3.50;99.90
75091;DHT22;63674;48.048;8.306;2023-02-07T01:46:33;-3.60;99.90
75091;DHT22;63674;48.048;8.306;2023-02-07T01:49:07;-3.60;99.90
75091;DHT22;63674;48.048;8.306;2023-02-07T01:51:38;-3.50;99.90
75091;DHT22;63674;48.048;8.306;2023-02-07T01:54:10;-3.60;99.90
75091;DHT22;63674;48.048;8.306;2023-02-07T01:56:56;-3.60;99.90
75091;DHT22;63674;48.048;8.306;2023-02-07T01:59:27;-3.60;99.90
75091;DHT22;63674;48.048;8.306;2023-02-07T02:01:58;-3.70;99.90
75091;DHT22;63674;48.048;8.306;2023-02-07T02:04:28;-3.80;99.90
75091;DHT22;63674;48.048;8.306;2023-02-07T02:06:57;-3.80;99.90
75091;DHT22;63674;48.048;8.306;2023-02-07T02:09:26;-3.80;99.90
75091;DHT22;63674;48.048;8.306;2023-02-07T02:12:11;-4.00;99.90
75091;DHT22;63674;48.048;8.306;2023-02-07T02:15:02;-4.00;99.90
75091;DHT22;63674;48.048;8.306;2023-02-07T02:17:58;-4.10;99.90
75091;DHT22;63674;48.048;8.306;2023-02-07T02:33:47;-4.60;99.90
75091;DHT22;63674;48.048;8.306;2023-02-07T02:36:28;-4.60;99.90
75091;DHT22;63674;48.048;8.306;2023-02-07T02:39:07;-4.70;99.90
75091;DHT22;63674;48.048;8.306;2023-02-07T02:41:40;-4.70;99.90
75091;DHT22;63674;48.048;8.306;2023-02-07T02:44:16;-4.60;99.90
75091;DHT22;63674;48.048;8.306;2023-02-07T02:46:47;-4.40;99.90
75091;DHT22;63674;48.048;8.306;2023-02-07T02:49:19;-4.40;99.90
75091;DHT22;63674;48.048;8.306;2023-02-07T02:51:49;-4.40;99.90
75091;DHT22;63674;48.048;8.306;2023-02-07T02:54:27;-4.40;99.90
75091;DHT22;63674;48.048;8.306;2023-02-07T03:00:31;-4.40;99.90
75091;DHT22;63674;48.048;8.306;2023-02-07T03:03:37;-4.50;99.90
75091;DHT22;63674;48.048;8.306;2023-02-07T03:06:20;-4.50;99.90
75091;DHT22;63674;48.048;8.306;2023-02-07T03:09:02;-4.60;99.90
75091;DHT22;63674;48.048;8.306;2023-02-07T03:11:40;-4.60;99.90
75091;DHT22;63674;48.048;8.306;2023-02-07T03:14:18;-4.60;99.90
75091;DHT22;63674;48.048;8.306;2023-02-07T03:16:55;-4.60;99.90
75091;DHT22;63674;48.048;8.306;2023-02-07T03:19:28;-4.60;99.90
75091;DHT22;63674;48.048;8.306;2023-02-07T03:22:03;-4.80;99.90
75091;DHT22;63674;48.048;8.306;2023-02-07T03:24:40;-4.90;99.90
75091;DHT22;63674;48.048;8.306;2023-02-07T03:27:14;-5.10;99.90
75091;DHT22;63674;48.048;8.306;2023-02-07T03:29:46;-5.20;99.90
75091;DHT22;63674;48.048;8.306;2023-02-07T03:32:18;-5.20;99.90
75091;DHT22;63674;48.048;8.306;2023-02-07T03:34:52;-5.10;99.90
75091;DHT22;63674;48.048;8.306;2023-02-07T03:37:28;-5.20;99.90
75091;DHT22;63674;48.048;8.306;2023-02-07T03:40:01;-5.20;99.90
75091;DHT22;63674;48.048;8.306;2023-02-07T03:42:33;-5.10;99.90
75091;DHT22;63674;48.048;8.306;2023-02-07T03:45:06;-5.20;99.90
75091;DHT22;63674;48.048;8.306;2023-02-07T03:47:37;-5.30;99.90
75091;DHT22;63674;48.048;8.306;2023-02-07T03:50:05;-5.40;99.90
75091;DHT22;63674;48.048;8.306;2023-02-07T03:52:36;-5.40;99.90
75091;DHT22;63674;48.048;8.306;2023-02-07T03:55:05;-5.40;99.90
75091;DHT22;63674;48.048;8.306;2023-02-07T04:00:05;-5.50;99.90
75091;DHT22;63674;48.048;8.306;2023-02-07T04:02:34;-5.50;99.90
75091;DHT22;63674;48.048;8.306;2023-02-07T04:05:03;-5.40;99.90
75091;DHT22;63674;48.048;8.306;2023-02-07T04:07:32;-5.40;99.90
75091;DHT22;63674;48.048;8.306;2023-02-07T04:10:02;-5.30;99.90
75091;DHT22;63674;48.048;8.306;2023-02-07T04:12:31;-5.10;99.90
75091;DHT22;63674;48.048;8.306;2023-02-07T04:15:00;-5.10;99.90
75091;DHT22;63674;48.048;8.306;2023-02-07T04:17:30;-5.00;99.90
75091;DHT22;63674;48.048;8.306;2023-02-07T04:19:59;-4.90;99.90
75091;DHT22;63674;48.048;8.306;2023-02-07T04:22:28;-4.90;99.90
75091;DHT22;63674;48.048;8.306;2023-02-07T04:24:56;-4.80;99.90
75091;DHT22;63674;48.048;8.306;2023-02-07T04:27:27;-4.70;99.90
75091;DHT22;63674;48.048;8.306;2023-02-07T04:29:55;-4.70;99.90
75091;DHT22;63674;48.048;8.306;2023-02-07T04:32:25;-4.60;99.90
75091;DHT22;63674;48.048;8.306;2023-02-07T04:34:53;-4.60;99.90
75091;DHT22;63674;48.048;8.306;2023-02-07T04:37:22;-4.80;99.90
75091;DHT22;63674;48.048;8.306;2023-02-07T04:39:50;-4.80;99.90
75091;DHT22;63674;48.048;8.306;2023-02-07T04:42:19;-4.90;99.90
75091;DHT22;63674;48.048;8.306;2023-02-07T04:44:49;-4.90;99.90
75091;DHT22;63674;48.048;8.306;2023-02-07T04:47:17;-5.00;99.90
75091;DHT22;63674;48.048;8.306;2023-02-07T04:49:45;-5.10;99.90
75091;DHT22;63674;48.048;8.306;2023-02-07T04:52:14;-5.10;99.90
75091;DHT22;63674;48.048;8.306;2023-02-07T04:54:43;-5.20;99.90
75091;DHT22;63674;48.048;8.306;2023-02-07T04:57:12;-5.20;99.90
75091;DHT22;63674;48.048;8.306;2023-02-07T04:59:40;-5.30;99.90
75091;DHT22;63674;48.048;8.306;2023-02-07T05:02:10;-5.50;99.90
75091;DHT22;63674;48.048;8.306;2023-02-07T05:07:07;-5.60;99.90
75091;DHT22;63674;48.048;8.306;2023-02-07T05:09:37;-5.60;99.90
75091;DHT22;63674;48.048;8.306;2023-02-07T05:12:05;-5.80;99.90
75091;DHT22;63674;48.048;8.306;2023-02-07T05:14:34;-5.90;99.90
75091;DHT22;63674;48.048;8.306;2023-02-07T05:17:03;-6.00;99.90
75091;DHT22;63674;48.048;8.306;2023-02-07T05:19:32;-5.90;99.90
75091;DHT22;63674;48.048;8.306;2023-02-07T05:22:01;-5.80;99.90
75091;DHT22;63674;48.048;8.306;2023-02-07T05:24:29;-5.90;99.90
75091;DHT22;63674;48.048;8.306;2023-02-07T05:26:58;-5.90;99.90
75091;DHT22;63674;48.048;8.306;2023-02-07T05:29:26;-5.90;99.90
75091;DHT22;63674;48.048;8.306;2023-02-07T05:34:42;-6.00;99.90
75091;DHT22;63674;48.048;8.306;2023-02-07T05:37:11;-6.10;99.90
75091;DHT22;63674;48.048;8.306;2023-02-07T05:39:39;-6.30;99.90
75091;DHT22;63674;48.048;8.306;2023-02-07T05:42:08;-6.30;99.90
75091;DHT22;63674;48.048;8.306;2023-02-07T05:44:36;-6.40;99.90
75091;DHT22;63674;48.048;8.306;2023-02-07T05:47:04;-6.50;99.90
75091;DHT22;63674;48.048;8.306;2023-02-07T05:49:33;-6.40;99.90
75091;DHT22;63674;48.048;8.306;2023-02-07T05:52:03;-6.30;99.90
75091;DHT22;63674;48.048;8.306;2023-02-07T05:54:32;-6.30;99.90
75091;DHT22;63674;48.048;8.306;2023-02-07T05:57:01;-6.30;99.90
75091;DHT22;63674;48.048;8.306;2023-02-07T05:59:29;-6.30;99.90
75091;DHT22;63674;48.048;8.306;2023-02-07T06:04:26;-6.40;99.90
75091;DHT22;63674;48.048;8.306;2023-02-07T06:06:54;-6.40;99.90
75091;DHT22;63674;48.048;8.306;2023-02-07T06:09:24;-6.50;99.90
75091;DHT22;63674;48.048;8.306;2023-02-07T06:11:53;-6.50;99.90
75091;DHT22;63674;48.048;8.306;2023-02-07T06:14:22;-6.50;99.90
75091;DHT22;63674;48.048;8.306;2023-02-07T06:16:51;-6.50;99.90
75091;DHT22;63674;48.048;8.306;2023-02-07T06:19:20;-6.60;99.90
75091;DHT22;63674;48.048;8.306;2023-02-07T06:21:48;-6.60;99.90
75091;DHT22;63674;48.048;8.306;2023-02-07T06:24:17;-6.70;99.90
75091;DHT22;63674;48.048;8.306;2023-02-07T06:26:47;-6.80;99.90
75091;DHT22;63674;48.048;8.306;2023-02-07T06:29:15;-6.70;99.90
75091;DHT22;63674;48.048;8.306;2023-02-07T06:34:13;-6.70;99.90
75091;DHT22;63674;48.048;8.306;2023-02-07T06:36:41;-6.80;99.90
75091;DHT22;63674;48.048;8.306;2023-02-07T06:39:10;-6.80;99.90
75091;DHT22;63674;48.048;8.306;2023-02-07T06:41:38;-6.70;99.90
75091;DHT22;63674;48.048;8.306;2023-02-07T06:44:08;-6.70;99.90
75091;DHT22;63674;48.048;8.306;2023-02-07T06:46:37;-6.70;99.90
75091;DHT22;63674;48.048;8.306;2023-02-07T06:49:05;-6.70;99.90
75091;DHT22;63674;48.048;8.306;2023-02-07T06:51:34;-6.80;99.90
75091;DHT22;63674;48.048;8.306;2023-02-07T06:54:02;-6.80;99.90
75091;DHT22;63674;48.048;8.306;2023-02-07T06:56:35;-6.80;99.90
75091;DHT22;63674;48.048;8.306;2023-02-07T06:59:04;-6.80;99.90
75091;DHT22;63674;48.048;8.306;2023-02-07T07:01:34;-6.90;99.90
75091;DHT22;63674;48.048;8.306;2023-02-07T07:04:02;-6.90;99.90
75091;DHT22;63674;48.048;8.306;2023-02-07T07:06:31;-7.00;99.90
75091;DHT22;63674;48.048;8.306;2023-02-07T07:09:00;-7.00;99.90
75091;DHT22;63674;48.048;8.306;2023-02-07T07:13:57;-7.20;99.90
75091;DHT22;63674;48.048;8.306;2023-02-07T07:16:26;-7.10;99.90
75091;DHT22;63674;48.048;8.306;2023-02-07T07:18:56;-7.10;99.90
75091;DHT22;63674;48.048;8.306;2023-02-07T07:21:25;-7.00;99.90
75091;DHT22;63674;48.048;8.306;2023-02-07T07:23:54;-6.90;99.90
75091;DHT22;63674;48.048;8.306;2023-02-07T07:26:23;-6.90;99.90
75091;DHT22;63674;48.048;8.306;2023-02-07T07:28:59;-6.90;99.90
75091;DHT22;63674;48.048;8.306;2023-02-07T07:31:28;-7.00;99.90
75091;DHT22;63674;48.048;8.306;2023-02-07T07:33:58;-6.90;99.90
75091;DHT22;63674;48.048;8.306;2023-02-07T07:36:26;-7.00;99.90
75091;DHT22;63674;48.048;8.306;2023-02-07T07:38:55;-6.90;99.90
75091;DHT22;63674;48.048;8.306;2023-02-07T07:41:24;-6.90;99.90
75091;DHT22;63674;48.048;8.306;2023-02-07T07:43:52;-7.10;99.90
75091;DHT22;63674;48.048;8.306;2023-02-07T07:46:21;-7.20;99.90
75091;DHT22;63674;48.048;8.306;2023-02-07T07:48:49;-7.10;99.90
75091;DHT22;63674;48.048;8.306;2023-02-07T07:51:20;-7.00;99.90
75091;DHT22;63674;48.048;8.306;2023-02-07T07:53:48;-6.90;99.90
75091;DHT22;63674;48.048;8.306;2023-02-07T07:56:17;-6.80;99.90
75091;DHT22;63674;48.048;8.306;2023-02-07T07:58:46;-6.70;99.90
75091;DHT22;63674;48.048;8.306;2023-02-07T08:01:15;-6.70;99.90
75091;DHT22;63674;48.048;8.306;2023-02-07T08:03:44;-6.60;99.90
75091;DHT22;63674;48.048;8.306;2023-02-07T08:06:13;-6.60;99.90
75091;DHT22;63674;48.048;8.306;2023-02-07T08:08:42;-6.60;99.90
75091;DHT22;63674;48.048;8.306;2023-02-07T08:11:11;-6.60;99.90
75091;DHT22;63674;48.048;8.306;2023-02-07T08:13:39;-6.50;99.90
75091;DHT22;63674;48.048;8.306;2023-02-07T08:18:37;-6.50;99.90
75091;DHT22;63674;48.048;8.306;2023-02-07T08:21:06;-6.40;99.90
75091;DHT22;63674;48.048;8.306;2023-02-07T08:23:35;-6.40;99.90
75091;DHT22;63674;48.048;8.306;2023-02-07T08:26:05;-6.50;99.90
75091;DHT22;63674;48.048;8.306;2023-02-07T08:28:34;-6.50;99.90
75091;DHT22;63674;48.048;8.306;2023-02-07T08:31:04;-6.60;99.90
75091;DHT22;63674;48.048;8.306;2023-02-07T08:33:32;-6.60;99.90
75091;DHT22;63674;48.048;8.306;2023-02-07T08:36:01;-6.60;99.90
75091;DHT22;63674;48.048;8.306;2023-02-07T08:38:33;-6.60;99.90
75091;DHT22;63674;48.048;8.306;2023-02-07T08:41:02;-6.50;99.90
75091;DHT22;63674;48.048;8.306;2023-02-07T08:43:53;-6.40;99.90
75091;DHT22;63674;48.048;8.306;2023-02-07T08:46:21;-6.50;99.90
75091;DHT22;63674;48.048;8.306;2023-02-07T08:48:50;-6.50;99.90
75091;DHT22;63674;48.048;8.306;2023-02-07T08:51:19;-6.30;99.90
75091;DHT22;63674;48.048;8.306;2023-02-07T08:53:47;-6.20;99.90
75091;DHT22;63674;48.048;8.306;2023-02-07T08:56:17;-5.90;99.90
75091;DHT22;63674;48.048;8.306;2023-02-07T09:01:14;-5.80;99.90
75091;DHT22;63674;48.048;8.306;2023-02-07T09:03:43;-5.70;99.90
75091;DHT22;63674;48.048;8.306;2023-02-07T09:06:12;-5.60;99.90
75091;DHT22;63674;48.048;8.306;2023-02-07T09:08:40;-5.60;99.90
75091;DHT22;63674;48.048;8.306;2023-02-07T09:11:09;-5.40;99.90
75091;DHT22;63674;48.048;8.306;2023-02-07T09:13:39;-5.30;99.90
75091;DHT22;63674;48.048;8.306;2023-02-07T09:16:08;-5.20;99.90
75091;DHT22;63674;48.048;8.306;2023-02-07T09:18:39;-5.20;99.90
75091;DHT22;63674;48.048;8.306;2023-02-07T09:21:08;-5.10;99.90
75091;DHT22;63674;48.048;8.306;2023-02-07T09:23:38;-5.10;99.90
75091;DHT22;63674;48.048;8.306;2023-02-07T09:26:08;-4.90;99.90
75091;DHT22;63674;48.048;8.306;2023-02-07T09:28:39;-4.80;99.90
75091;DHT22;63674;48.048;8.306;2023-02-07T09:31:08;-4.70;99.90
75091;DHT22;63674;48.048;8.306;2023-02-07T09:33:38;-4.60;99.90
75091;DHT22;63674;48.048;8.306;2023-02-07T09:36:15;-4.50;99.90
75091;DHT22;63674;48.048;8.306;2023-02-07T09:38:46;-4.50;99.90
75091;DHT22;63674;48.048;8.306;2023-02-07T09:41:20;-4.40;99.90
75091;DHT22;63674;48.048;8.306;2023-02-07T09:44:05;-4.40;99.90
75091;DHT22;63674;48.048;8.306;2023-02-07T09:46:44;-4.30;99.90
75091;DHT22;63674;48.048;8.306;2023-02-07T09:49:29;-4.20;99.90
75091;DHT22;63674;48.048;8.306;2023-02-07T09:52:02;-4.20;99.90
75091;DHT22;63674;48.048;8.306;2023-02-07T09:54:38;-4.10;99.90
75091;DHT22;63674;48.048;8.306;2023-02-07T09:57:15;-4.00;99.90
75091;DHT22;63674;48.048;8.306;2023-02-07T09:59:51;-3.80;99.90
75091;DHT22;63674;48.048;8.306;2023-02-07T10:02:26;-3.70;99.90
75091;DHT22;63674;48.048;8.306;2023-02-07T10:05:01;-3.50;99.90
75091;DHT22;63674;48.048;8.306;2023-02-07T10:07:33;-3.40;99.90
75091;DHT22;63674;48.048;8.306;2023-02-07T10:10:11;-3.30;99.90
75091;DHT22;63674;48.048;8.306;2023-02-07T10:13:00;-3.30;99.90
75091;DHT22;63674;48.048;8.306;2023-02-07T10:16:01;-3.20;99.90
75091;DHT22;63674;48.048;8.306;2023-02-07T10:18:45;-3.00;99.90
75091;DHT22;63674;48.048;8.306;2023-02-07T10:21:23;-2.80;99.90
75091;DHT22;63674;48.048;8.306;2023-02-07T10:27:08;-2.50;99.90
75091;DHT22;63674;48.048;8.306;2023-02-07T10:29:48;-2.40;99.90
75091;DHT22;63674;48.048;8.306;2023-02-07T10:32:21;-2.30;99.90
75091;DHT22;63674;48.048;8.306;2023-02-07T10:34:54;-2.10;99.90
75091;DHT22;63674;48.048;8.306;2023-02-07T10:37:27;-1.90;99.90
75091;DHT22;63674;48.048;8.306;2023-02-07T10:39:59;-1.70;99.90
75091;DHT22;63674;48.048;8.306;2023-02-07T10:42:33;-1.50;99.90
75091;DHT22;63674;48.048;8.306;2023-02-07T10:45:04;-1.30;99.90
75091;DHT22;63674;48.048;8.306;2023-02-07T10:47:38;-1.10;99.90
75091;DHT22;63674;48.048;8.306;2023-02-07T10:50:10;-0.90;99.90
75091;DHT22;63674;48.048;8.306;2023-02-07T10:52:52;-0.60;99.90
75091;DHT22;63674;48.048;8.306;2023-02-07T10:55:35;-0.40;99.90
75091;DHT22;63674;48.048;8.306;2023-02-07T10:58:13;-0.30;99.90
75091;DHT22;63674;48.048;8.306;2023-02-07T11:00:50;-0.10;99.90
75091;DHT22;63674;48.048;8.306;2023-02-07T11:03:22;-0.20;99.90
75091;DHT22;63674;48.048;8.306;2023-02-07T11:05:55;-0.20;99.90
75091;DHT22;63674;48.048;8.306;2023-02-07T11:08:27;-0.10;99.90
75091;DHT22;63674;48.048;8.306;2023-02-07T11:10:57;0.00;99.90
75091;DHT22;63674;48.048;8.306;2023-02-07T11:13:29;0.10;99.90
75091;DHT22;63674;48.048;8.306;2023-02-07T11:16:00;0.10;99.90
75091;DHT22;63674;48.048;8.306;2023-02-07T11:18:38;0.30;99.90
75091;DHT22;63674;48.048;8.306;2023-02-07T11:21:24;0.30;99.90
75091;DHT22;63674;48.048;8.306;2023-02-07T11:23:58;0.30;99.90
75091;DHT22;63674;48.048;8.306;2023-02-07T11:26:28;0.40;99.90
75091;DHT22;63674;48.048;8.306;2023-02-07T11:29:04;0.60;99.90
75091;DHT22;63674;48.048;8.306;2023-02-07T11:31:36;0.60;99.90
75091;DHT22;63674;48.048;8.306;2023-02-07T11:34:28;0.60;99.90
75091;DHT22;63674;48.048;8.306;2023-02-07T11:37:09;0.60;99.90
75091;DHT22;63674;48.048;8.306;2023-02-07T11:39:46;0.60;99.90
75091;DHT22;63674;48.048;8.306;2023-02-07T11:42:18;0.80;99.90
75091;DHT22;63674;48.048;8.306;2023-02-07T11:44:48;0.80;99.90
75091;DHT22;63674;48.048;8.306;2023-02-07T11:47:20;1.00;99.90
75091;DHT22;63674;48.048;8.306;2023-02-07T11:49:55;1.00;99.90
75091;DHT22;63674;48.048;8.306;2023-02-07T11:52:25;1.10;99.90
75091;DHT22;63674;48.048;8.306;2023-02-07T11:54:56;1.10;99.90
75091;DHT22;63674;48.048;8.306;2023-02-07T11:57:29;1.30;99.90
75091;DHT22;63674;48.048;8.306;2023-02-07T12:00:04;1.30;99.90
75091;DHT22;63674;48.048;8.306;2023-02-07T12:02:35;1.30;99.90
75091;DHT22;63674;48.048;8.306;2023-02-07T12:05:17;1.20;99.90
75091;DHT22;63674;48.048;8.306;2023-02-07T12:07:51;1.20;99.90
75091;DHT22;63674;48.048;8.306;2023-02-07T12:10:22;1.30;99.90
75091;DHT22;63674;48.048;8.306;2023-02-07T12:12:56;1.30;99.90
75091;DHT22;63674;48.048;8.306;2023-02-07T12:15:31;1.20;99.90
75091;DHT22;63674;48.048;8.306;2023-02-07T12:18:06;1.40;99.90
75091;DHT22;63674;48.048;8.306;2023-02-07T12:20:43;1.50;99.90
75091;DHT22;63674;48.048;8.306;2023-02-07T12:23:20;1.60;99.90
75091;DHT22;63674;48.048;8.306;2023-02-07T12:26:15;1.60;99.90
75091;DHT22;63674;48.048;8.306;2023-02-07T12:28:52;1.40;99.90
75091;DHT22;63674;48.048;8.306;2023-02-07T12:31:48;1.30;99.90
75091;DHT22;63674;48.048;8.306;2023-02-07T12:34:29;1.30;99.90
75091;DHT22;63674;48.048;8.306;2023-02-07T12:37:10;1.20;99.90
75091;DHT22;63674;48.048;8.306;2023-02-07T12:39:53;1.20;99.90
75091;DHT22;63674;48.048;8.306;2023-02-07T12:42:33;1.40;99.90
75091;DHT22;63674;48.048;8.306;2023-02-07T12:45:08;1.50;99.90
75091;DHT22;63674;48.048;8.306;2023-02-07T12:47:49;1.40;99.90
75091;DHT22;63674;48.048;8.306;2023-02-07T12:50:35;1.50;99.90
75091;DHT22;63674;48.048;8.306;2023-02-07T12:53:29;1.50;99.90
75091;DHT22;63674;48.048;8.306;2023-02-07T12:56:15;1.50;99.90
75091;DHT22;63674;48.048;8.306;2023-02-07T12:58:55;1.50;99.90
75091;DHT22;63674;48.048;8.306;2023-02-07T13:01:33;1.50;99.90
75091;DHT22;63674;48.048;8.306;2023-02-07T13:07:17;1.40;99.90
75091;DHT22;63674;48.048;8.306;2023-02-07T13:09:58;1.30;99.90
75091;DHT22;63674;48.048;8.306;2023-02-07T13:12:39;1.20;99.90
75091;DHT22;63674;48.048;8.306;2023-02-07T13:15:17;1.10;99.90
75091;DHT22;63674;48.048;8.306;2023-02-07T13:17:53;1.10;99.90
75091;DHT22;63674;48.048;8.306;2023-02-07T13:23:23;1.30;99.90
75091;DHT22;63674;48.048;8.306;2023-02-07T13:25:57;1.30;99.90
75091;DHT22;63674;48.048;8.306;2023-02-07T13:28:35;1.30;99.90
75091;DHT22;63674;48.048;8.306;2023-02-07T13:31:09;1.40;99.90
75091;DHT22;63674;48.048;8.306;2023-02-07T13:33:41;1.50;99.90
75091;DHT22;63674;48.048;8.306;2023-02-07T13:36:16;1.50;99.90
75091;DHT22;63674;48.048;8.306;2023-02-07T13:39:01;1.30;99.90
75091;DHT22;63674;48.048;8.306;2023-02-07T13:41:58;1.40;99.90
75091;DHT22;63674;48.048;8.306;2023-02-07T13:44:41;1.40;99.90
75091;DHT22;63674;48.048;8.306;2023-02-07T13:47:35;1.40;99.90
75091;DHT22;63674;48.048;8.306;2023-02-07T13:50:22;1.30;99.90
75091;DHT22;63674;48.048;8.306;2023-02-07T13:53:03;1.30;99.90
75091;DHT22;63674;48.048;8.306;2023-02-07T13:55:39;1.30;99.90
75091;DHT22;63674;48.048;8.306;2023-02-07T14:01:49;1.40;99.90
75091;DHT22;63674;48.048;8.306;2023-02-07T14:04:21;1.50;99.90
75091;DHT22;63674;48.048;8.306;2023-02-07T14:07:02;1.50;99.90
75091;DHT22;63674;48.048;8.306;2023-02-07T14:09:41;1.40;99.90
75091;DHT22;63674;48.048;8.306;2023-02-07T14:12:18;1.40;99.90
75091;DHT22;63674;48.048;8.306;2023-02-07T14:14:50;1.20;99.90
75091;DHT22;63674;48.048;8.306;2023-02-07T14:17:57;1.30;99.90
75091;DHT22;63674;48.048;8.306;2023-02-07T14:20:47;1.20;99.90
75091;DHT22;63674;48.048;8.306;2023-02-07T14:23:17;1.20;99.90
75091;DHT22;63674;48.048;8.306;2023-02-07T14:25:46;1.30;99.90
75091;DHT22;63674;48.048;8.306;2023-02-07T14:28:30;1.20;99.90
75091;DHT22;63674;48.048;8.306;2023-02-07T14:31:19;1.20;99.90
75091;DHT22;63674;48.048;8.306;2023-02-07T14:34:08;1.20;99.90
75091;DHT22;63674;48.048;8.306;2023-02-07T14:36:38;1.20;99.90
75091;DHT22;63674;48.048;8.306;2023-02-07T14:39:22;1.20;99.90
75091;DHT22;63674;48.048;8.306;2023-02-07T14:42:08;1.30;99.90
75091;DHT22;63674;48.048;8.306;2023-02-07T14:44:40;1.20;99.90
75091;DHT22;63674;48.048;8.306;2023-02-07T14:47:19;1.20;99.90
75091;DHT22;63674;48.048;8.306;2023-02-07T14:49:53;1.20;99.90
75091;DHT22;63674;48.048;8.306;2023-02-07T14:52:27;1.30;99.90
75091;DHT22;63674;48.048;8.306;2023-02-07T14:55:00;1.40;99.90
75091;DHT22;63674;48.048;8.306;2023-02-07T14:57:37;1.30;99.90
75091;DHT22;63674;48.048;8.306;2023-02-07T15:00:27;1.20;99.90
75091;DHT22;63674;48.048;8.306;2023-02-07T15:03:02;1.20;99.90
75091;DHT22;63674;48.048;8.306;2023-02-07T15:05:48;1.10;99.90
75091;DHT22;63674;48.048;8.306;2023-02-07T15:08:19;1.10;99.90
75091;DHT22;63674;48.048;8.306;2023-02-07T15:10:54;1.10;99.90
75091;DHT22;63674;48.048;8.306;2023-02-07T15:13:27;1.20;99.90
75091;DHT22;63674;48.048;8.306;2023-02-07T15:15:59;1.10;99.90
75091;DHT22;63674;48.048;8.306;2023-02-07T15:18:32;1.10;99.90
75091;DHT22;63674;48.048;8.306;2023-02-07T15:21:02;1.00;99.90
75091;DHT22;63674;48.048;8.306;2023-02-07T15:23:31;1.00;99.90
75091;DHT22;63674;48.048;8.306;2023-02-07T15:26:05;1.00;99.90
75091;DHT22;63674;48.048;8.306;2023-02-07T15:28:34;0.90;99.90
75091;DHT22;63674;48.048;8.306;2023-02-07T15:31:05;0.90;99.90
75091;DHT22;63674;48.048;8.306;2023-02-07T15:33:48;0.90;99.90
75091;DHT22;63674;48.048;8.306;2023-02-07T15:36:28;0.80;99.90
75091;DHT22;63674;48.048;8.306;2023-02-07T15:39:00;0.80;99.90
75091;DHT22;63674;48.048;8.306;2023-02-07T15:41:30;0.70;99.90
75091;DHT22;63674;48.048;8.306;2023-02-07T15:44:01;0.70;99.90
75091;DHT22;63674;48.048;8.306;2023-02-07T15:46:43;0.70;99.90
75091;DHT22;63674;48.048;8.306;2023-02-07T15:49:27;0.70;99.90
75091;DHT22;63674;48.048;8.306;2023-02-07T15:52:05;0.70;99.90
75091;DHT22;63674;48.048;8.306;2023-02-07T15:54:43;0.60;99.90
75091;DHT22;63674;48.048;8.306;2023-02-07T15:57:21;0.60;99.90
75091;DHT22;63674;48.048;8.306;2023-02-07T15:59:52;0.60;99.90
75091;DHT22;63674;48.048;8.306;2023-02-07T16:02:26;0.40;99.90
75091;DHT22;63674;48.048;8.306;2023-02-07T16:05:06;0.50;99.90
75091;DHT22;63674;48.048;8.306;2023-02-07T16:07:36;0.40;99.90
75091;DHT22;63674;48.048;8.306;2023-02-07T16:10:17;0.30;99.90
75091;DHT22;63674;48.048;8.306;2023-02-07T16:12:48;0.20;99.90
75091;DHT22;63674;48.048;8.306;2023-02-07T16:15:25;0.10;99.90
75091;DHT22;63674;48.048;8.306;2023-02-07T16:17:55;0.10;99.90
75091;DHT22;63674;48.048;8.306;2023-02-07T16:20:26;-0.20;99.90
75091;DHT22;63674;48.048;8.306;2023-02-07T16:22:57;-0.20;99.90
75091;DHT22;63674;48.048;8.306;2023-02-07T16:25:29;-0.30;99.90
75091;DHT22;63674;48.048;8.306;2023-02-07T16:27:59;-0.30;99.90
75091;DHT22;63674;48.048;8.306;2023-02-07T16:30:30;-0.50;99.90
75091;DHT22;63674;48.048;8.306;2023-02-07T16:33:03;-0.50;99.90
75091;DHT22;63674;48.048;8.306;2023-02-07T16:35:34;-0.60;99.90
75091;DHT22;63674;48.048;8.306;2023-02-07T16:38:03;-0.60;99.90
75091;DHT22;63674;48.048;8.306;2023-02-07T16:40:31;-0.80;99.90
75091;DHT22;63674;48.048;8.306;2023-02-07T16:43:01;-0.90;99.90
75091;DHT22;63674;48.048;8.306;2023-02-07T16:45:32;-0.90;99.90
75091;DHT22;63674;48.048;8.306;2023-02-07T16:48:01;-1.00;99.90
75091;DHT22;63674;48.048;8.306;2023-02-07T16:50:30;-1.00;99.90
75091;DHT22;63674;48.048;8.306;2023-02-07T16:53:00;-1.10;99.90
75091;DHT22;63674;48.048;8.306;2023-02-07T16:55:28;-1.20;99.90
75091;DHT22;63674;48.048;8.306;2023-02-07T16:57:57;-1.30;99.90
75091;DHT22;63674;48.048;8.306;2023-02-07T17:00:26;-1.30;99.90
75091;DHT22;63674;48.048;8.306;2023-02-07T17:02:54;-1.40;99.90
75091;DHT22;63674;48.048;8.306;2023-02-07T17:05:23;-1.50;99.90